Time;durP1;ratioP1;P1;durP2;ratioP2;P2;SDS_P1;SDS_P2;PMS_P1;PMS_P2;Temp;Humidity;BMP_temperature;BMP_pressure;BME280_temperature;BME280_humidity;BME280_pressure;Samples;Min_cycle;Max_cycle;Signal;HPM_P1;HPM_P2
2022/02/15 00:00:34;;;;;;;2.67;1.30;;;8.80;95.00;;;;;;5097159;28;20069;-67
2022/02/15 00:03:00;;;;;;;7.53;1.58;;;8.80;95.10;;;;;;5077092;28;20040;-67
2022/02/15 00:05:26;;;;;;;3.28;1.20;;;8.80;95.10;;;;;;5084430;28;20452;-67
2022/02/15 00:07:52;;;;;;;4.88;1.05;;;8.80;95.10;;;;;;5094198;28;20097;-67
2022/02/15 00:10:18;;;;;;;6.70;1.23;;;8.80;95.10;;;;;;5094500;28;20123;-67
2022/02/15 00:12:44;;;;;;;4.57;1.17;;;8.80;95.20;;;;;;5088635;28;20457;-67
2022/02/15 00:15:11;;;;;;;7.50;1.65;;;8.80;95.20;;;;;;5074104;28;20033;-67
2022/02/15 00:17:39;;;;;;;3.75;1.35;;;8.80;95.20;;;;;;5078850;28;20119;-67
2022/02/15 00:20:08;;;;;;;7.38;2.10;;;8.80;95.30;;;;;;5093450;28;20091;-67
2022/02/15 00:22:35;;;;;;;7.40;1.08;;;8.80;95.30;;;;;;5080447;28;20039;-67
2022/02/15 00:25:01;;;;;;;6.47;1.30;;;8.80;95.40;;;;;;5094036;28;20024;-67
2022/02/15 00:27:26;;;;;;;2.63;1.02;;;8.80;95.40;;;;;;5079969;28;20086;-67
2022/02/15 00:29:52;;;;;;;4.50;1.50;;;8.80;95.40;;;;;;5091912;28;20412;-67
2022/02/15 00:32:20;;;;;;;3.03;1.55;;;8.80;95.50;;;;;;5092948;28;20039;-67
2022/02/15 00:34:46;;;;;;;6.50;1.52;;;8.80;95.60;;;;;;5093136;28;20028;-67
2022/02/15 00:37:15;;;;;;;9.02;1.70;;;8.70;95.60;;;;;;5093701;28;20028;-67
2022/02/15 00:39:41;;;;;;;5.22;1.63;;;8.70;95.60;;;;;;5093772;28;20059;-67
2022/02/15 00:42:08;;;;;;;9.60;1.90;;;8.70;95.70;;;;;;5071075;28;20434;-67
2022/02/15 00:44:36;;;;;;;7.20;1.75;;;8.70;95.70;;;;;;5073321;28;20060;-67
2022/02/15 00:47:02;;;;;;;7.22;1.25;;;8.70;95.70;;;;;;5077298;28;20386;-67
2022/02/15 00:49:28;;;;;;;6.75;1.50;;;8.70;95.70;;;;;;5063683;28;20040;-67
2022/02/15 00:51:54;;;;;;;7.88;1.70;;;8.70;95.70;;;;;;5091009;28;20031;-68
2022/02/15 00:54:20;;;;;;;7.57;1.83;;;8.70;95.70;;;;;;5064095;28;20032;-67
2022/02/15 00:56:46;;;;;;;7.63;2.00;;;8.70;95.80;;;;;;5090761;28;20024;-67
2022/02/15 00:59:11;;;;;;;9.90;1.40;;;8.70;95.80;;;;;;5098617;28;20517;-67
2022/02/15 01:01:37;;;;;;;2.53;1.08;;;8.70;95.90;;;;;;5092633;28;20031;-67
2022/02/15 01:04:04;;;;;;;7.03;1.77;;;8.70;95.80;;;;;;5081035;28;20132;-67
2022/02/15 01:06:35;;;;;;;12.63;1.73;;;8.70;95.80;;;;;;5067473;28;20048;-67
2022/02/15 01:09:02;;;;;;;8.40;2.35;;;8.70;95.80;;;;;;5054447;28;20078;-67
2022/02/15 01:11:28;;;;;;;7.40;1.77;;;8.70;95.80;;;;;;5075117;28;20024;-67
2022/02/15 01:13:53;;;;;;;6.95;1.52;;;8.70;95.80;;;;;;5079155;28;20029;-67
2022/02/15 01:16:19;;;;;;;1.95;1.00;;;8.80;95.80;;;;;;5066762;28;20074;-67
2022/02/15 01:18:44;;;;;;;5.82;1.48;;;8.80;95.80;;;;;;5085773;28;20085;-68
2022/02/15 01:21:10;;;;;;;4.07;1.65;;;8.80;95.80;;;;;;5072785;28;20032;-67
2022/02/15 01:23:36;;;;;;;12.35;2.22;;;8.80;95.80;;;;;;5071754;28;20082;-68
2022/02/15 01:26:02;;;;;;;6.93;1.50;;;8.80;95.70;;;;;;5067489;28;20036;-67
2022/02/15 01:28:28;;;;;;;7.28;1.50;;;8.80;95.70;;;;;;5095699;28;20055;-68
2022/02/15 01:30:55;;;;;;;6.32;1.15;;;8.80;95.80;;;;;;5088421;28;20020;-67
2022/02/15 01:33:21;;;;;;;4.60;1.85;;;8.80;95.80;;;;;;5095028;28;20484;-67
2022/02/15 01:35:47;;;;;;;9.48;2.05;;;8.80;95.80;;;;;;5073793;28;20021;-67
2022/02/15 01:38:13;;;;;;;4.72;1.50;;;8.80;95.80;;;;;;5064967;28;20093;-67
2022/02/15 01:40:40;;;;;;;11.18;2.10;;;8.70;96.00;;;;;;5073510;28;20455;-67
2022/02/15 01:43:07;;;;;;;3.20;1.23;;;8.80;95.80;;;;;;5075165;28;20447;-69
2022/02/15 01:45:33;;;;;;;10.15;2.00;;;8.80;95.80;;;;;;5073634;28;20024;-67
2022/02/15 01:47:59;;;;;;;5.13;1.60;;;8.80;95.80;;;;;;5074498;28;20116;-67
2022/02/15 01:50:25;;;;;;;3.38;1.23;;;8.80;95.80;;;;;;5068888;28;20020;-67
2022/02/15 01:52:51;;;;;;;7.75;1.45;;;8.80;95.80;;;;;;5066207;28;20024;-67
2022/02/15 01:55:17;;;;;;;9.13;1.60;;;8.80;95.80;;;;;;5073453;28;20137;-67
2022/02/15 01:57:43;;;;;;;6.90;0.95;;;8.80;95.70;;;;;;5074445;28;20082;-67
2022/02/15 02:00:18;;;;;;;6.50;2.08;;;8.80;95.70;;;;;;5079174;28;20036;-67
2022/02/15 02:02:51;;;;;;;8.55;2.10;;;8.80;95.70;;;;;;5074202;28;20486;-67
2022/02/15 02:08:09;;;;;;;14.02;1.83;;;8.80;95.80;;;;;;5067884;28;20039;-67
2022/02/15 02:10:43;;;;;;;12.00;1.83;;;8.80;95.90;;;;;;5054054;28;20028;-67
2022/02/15 02:13:21;;;;;;;9.00;2.33;;;8.70;95.90;;;;;;5056863;28;20025;-67
2022/02/15 02:15:49;;;;;;;6.25;1.92;;;8.70;95.90;;;;;;5058974;28;20020;-67
2022/02/15 02:18:30;;;;;;;3.60;1.52;;;8.70;96.00;;;;;;5061890;28;20029;-67
2022/02/15 02:21:01;;;;;;;7.10;1.85;;;8.70;96.00;;;;;;5072696;28;20052;-67
2022/02/15 02:23:26;;;;;;;4.43;1.67;;;8.70;96.00;;;;;;5073969;28;20040;-67
2022/02/15 02:26:00;;;;;;;7.82;1.45;;;8.70;96.10;;;;;;5073612;28;20391;-67
2022/02/15 02:28:31;;;;;;;12.20;2.25;;;8.70;96.10;;;;;;5073965;28;20024;-67
2022/02/15 02:30:57;;;;;;;7.72;1.60;;;8.70;96.10;;;;;;5075119;28;20036;-67
2022/02/15 02:33:23;;;;;;;8.57;2.00;;;8.70;96.10;;;;;;5081973;28;20118;-67
2022/02/15 02:36:17;;;;;;;13.13;2.17;;;8.70;96.00;;;;;;5080498;28;20077;-67
2022/02/15 02:38:43;;;;;;;2.80;1.27;;;8.70;96.00;;;;;;5069888;28;20040;-67
2022/02/15 02:41:09;;;;;;;4.95;1.58;;;8.70;96.00;;;;;;5095431;28;20474;-67
2022/02/15 02:43:37;;;;;;;5.38;1.83;;;8.80;96.20;;;;;;5093846;28;20093;-67
2022/02/15 02:46:03;;;;;;;8.52;1.55;;;8.80;96.00;;;;;;5057766;28;20506;-67
2022/02/15 02:48:31;;;;;;;8.75;1.98;;;8.80;96.00;;;;;;5091404;28;20063;-67
2022/02/15 02:50:58;;;;;;;4.07;1.38;;;8.80;96.00;;;;;;5067672;28;20059;-67
2022/02/15 02:53:25;;;;;;;8.82;1.88;;;8.80;95.90;;;;;;5061423;28;20024;-67
2022/02/15 02:55:51;;;;;;;5.43;2.05;;;8.80;95.90;;;;;;5066216;28;20031;-67
2022/02/15 02:58:16;;;;;;;6.15;1.55;;;8.80;95.90;;;;;;5093098;28;20028;-67
2022/02/15 03:00:42;;;;;;;6.55;1.92;;;8.80;95.90;;;;;;5066285;28;20049;-67
2022/02/15 03:03:30;;;;;;;6.13;1.52;;;8.80;95.90;;;;;;5082441;28;20046;-67
2022/02/15 03:05:57;;;;;;;8.77;1.65;;;8.80;95.90;;;;;;5077297;28;20115;-67
2022/02/15 03:08:23;;;;;;;7.05;1.83;;;8.80;96.00;;;;;;5076556;28;20038;-67
2022/02/15 03:10:50;;;;;;;7.78;1.50;;;8.80;96.00;;;;;;5063891;28;20051;-67
2022/02/15 03:13:26;;;;;;;7.05;1.48;;;8.80;96.00;;;;;;5067123;28;20032;-67
2022/02/15 03:15:52;;;;;;;4.75;1.30;;;8.80;96.00;;;;;;5078135;28;20034;-67
2022/02/15 03:18:20;;;;;;;5.97;1.60;;;8.80;95.90;;;;;;5077359;28;20047;-67
2022/02/15 03:20:46;;;;;;;8.75;1.60;;;8.90;95.90;;;;;;5076984;28;20024;-67
2022/02/15 03:23:12;;;;;;;4.57;1.42;;;8.90;95.80;;;;;;5076344;28;20232;-67
2022/02/15 03:25:37;;;;;;;11.13;2.30;;;8.90;95.80;;;;;;5076878;28;20035;-67
2022/02/15 03:28:05;;;;;;;6.00;1.33;;;8.90;95.80;;;;;;5077213;28;20028;-67
2022/02/15 03:30:31;;;;;;;18.15;1.70;;;8.90;95.70;;;;;;5070322;28;20394;-67
2022/02/15 03:32:58;;;;;;;7.03;1.65;;;8.90;95.70;;;;;;5095932;28;20036;-67
2022/02/15 03:35:24;;;;;;;4.72;1.30;;;8.90;95.70;;;;;;5082909;28;20522;-67
2022/02/15 03:38:00;;;;;;;2.85;1.30;;;8.90;95.70;;;;;;5067436;28;20434;-67
2022/02/15 03:43:13;;;;;;;4.32;1.25;;;8.90;95.60;;;;;;5064076;28;20514;-67
2022/02/15 03:45:39;;;;;;;8.88;1.45;;;8.90;95.60;;;;;;5060961;28;20158;-67
2022/02/15 03:48:11;;;;;;;7.63;1.50;;;8.90;95.60;;;;;;5074442;28;20080;-67
2022/02/15 03:50:41;;;;;;;10.02;1.73;;;8.90;95.60;;;;;;5074587;28;20031;-67
2022/02/15 03:53:08;;;;;;;10.65;1.67;;;9.00;95.70;;;;;;5070926;28;20036;-67
2022/02/15 03:55:37;;;;;;;8.25;1.63;;;8.90;95.60;;;;;;5083751;28;20046;-67
2022/02/15 03:58:04;;;;;;;10.50;1.60;;;8.90;95.60;;;;;;5076544;28;20383;-67
2022/02/15 04:00:30;;;;;;;4.95;1.52;;;8.90;95.60;;;;;;5063485;28;20047;-67
2022/02/15 04:03:06;;;;;;;7.43;1.30;;;8.90;95.60;;;;;;5071539;28;20032;-67
2022/02/15 04:05:32;;;;;;;6.00;1.50;;;8.90;95.60;;;;;;5075725;28;20048;-67
2022/02/15 04:07:58;;;;;;;7.30;1.60;;;8.90;95.60;;;;;;5075110;28;20112;-67
2022/02/15 04:10:24;;;;;;;3.50;1.17;;;8.90;95.60;;;;;;5078643;28;20024;-67
2022/02/15 04:12:50;;;;;;;3.72;1.45;;;8.90;95.60;;;;;;5077694;28;20027;-67
2022/02/15 04:15:18;;;;;;;6.20;1.58;;;9.00;95.60;;;;;;5076090;28;20028;-67
2022/02/15 04:17:49;;;;;;;2.47;1.33;;;8.90;95.50;;;;;;5076025;28;20047;-67
2022/02/15 04:20:16;;;;;;;5.38;1.38;;;8.90;95.50;;;;;;5073391;28;20483;-67
2022/02/15 04:22:42;;;;;;;9.50;1.73;;;8.90;95.50;;;;;;5075935;28;20040;-67
2022/02/15 04:25:11;;;;;;;5.10;1.27;;;8.90;95.50;;;;;;5069869;28;20017;-67
2022/02/15 04:27:37;;;;;;;6.47;2.00;;;9.00;95.50;;;;;;5061965;28;20110;-67
2022/02/15 04:30:06;;;;;;;4.78;1.50;;;8.90;95.50;;;;;;5076800;28;20024;-67
2022/02/15 04:32:33;;;;;;;7.18;1.70;;;9.00;95.50;;;;;;5063088;28;20028;-67
2022/02/15 04:35:00;;;;;;;5.00;2.08;;;8.90;95.50;;;;;;5074971;28;20069;-67
2022/02/15 04:37:26;;;;;;;5.15;1.65;;;8.90;95.50;;;;;;5063825;28;20027;-67
2022/02/15 04:39:52;;;;;;;2.50;1.02;;;8.90;95.50;;;;;;5093115;28;20028;-67
2022/02/15 04:42:19;;;;;;;7.72;1.90;;;8.90;95.50;;;;;;5062059;28;20024;-67
2022/02/15 04:44:46;;;;;;;10.02;1.95;;;9.00;95.50;;;;;;5075725;28;20036;-67
2022/02/15 04:47:20;;;;;;;;;;;8.90;95.50;;;;;;5108892;28;20089;-67
2022/02/15 04:49:46;;;;;;;5.55;2.38;;;9.00;95.50;;;;;;5075613;28;19986;-67
2022/02/15 04:52:11;;;;;;;3.00;1.20;;;8.90;95.40;;;;;;5072811;28;20032;-68
2022/02/15 04:54:39;;;;;;;2.58;1.17;;;8.90;95.50;;;;;;5059800;28;20024;-67
2022/02/15 04:57:05;;;;;;;3.72;1.58;;;8.90;95.50;;;;;;5062209;28;20480;-67
2022/02/15 04:59:34;;;;;;;7.32;1.35;;;8.90;95.50;;;;;;5074701;28;20071;-67
2022/02/15 05:02:00;;;;;;;3.00;0.95;;;8.90;95.50;;;;;;5070678;28;20104;-67
2022/02/15 05:07:09;;;;;;;;;;;8.80;95.50;;;;;;5058773;28;20445;-67
2022/02/15 05:09:41;;;;;;;4.95;1.45;;;8.80;95.40;;;;;;5074630;28;19915;-67
2022/02/15 05:12:07;;;;;;;8.27;1.25;;;8.80;95.40;;;;;;5060662;28;20020;-67
2022/02/15 05:14:37;;;;;;;3.38;1.23;;;8.80;95.40;;;;;;5063231;28;20025;-67
2022/02/15 05:17:04;;;;;;;3.20;1.50;;;8.80;95.40;;;;;;5066449;28;20512;-67
2022/02/15 05:19:57;;;;;;;4.53;1.17;;;8.90;95.70;;;;;;5086411;28;20136;-67
2022/02/15 05:22:23;;;;;;;2.38;1.17;;;8.90;95.30;;;;;;5064476;28;20040;-68
2022/02/15 05:24:53;;;;;;;2.13;0.93;;;8.90;95.30;;;;;;5070316;28;20020;-68
2022/02/15 05:27:22;;;;;;;2.42;1.65;;;8.90;95.30;;;;;;5066456;28;20028;-67
2022/02/15 05:29:53;;;;;;;3.20;0.55;;;8.90;95.20;;;;;;5073749;28;20123;-67
2022/02/15 05:32:25;;;;;;;6.65;1.10;;;8.90;95.20;;;;;;5074677;28;20032;-67
2022/02/15 05:34:54;;;;;;;0.40;0.40;;;9.00;95.10;;;;;;5074947;28;20072;-67
2022/02/15 05:37:21;;;;;;;0.30;0.30;;;9.00;95.10;;;;;;5058993;28;20522;-67
2022/02/15 05:39:49;;;;;;;1.88;0.90;;;9.00;95.10;;;;;;5063517;28;20058;-67
2022/02/15 05:42:26;;;;;;;1.08;0.65;;;9.00;95.00;;;;;;5092441;28;20073;-67
2022/02/15 05:44:52;;;;;;;1.25;0.95;;;9.00;94.90;;;;;;5063361;28;20032;-67
2022/02/15 05:47:17;;;;;;;4.47;1.33;;;9.10;94.90;;;;;;5071888;28;20495;-67
2022/02/15 05:52:39;;;;;;;0.75;0.73;;;9.10;94.70;;;;;;5063307;28;20059;-67
2022/02/15 05:55:11;;;;;;;1.90;1.02;;;9.00;94.70;;;;;;5072518;28;20036;-67
2022/02/15 05:57:37;;;;;;;4.63;1.38;;;9.00;94.80;;;;;;5060359;28;20038;-67
2022/02/15 06:00:11;;;;;;;;;;;8.90;94.80;;;;;;5071299;28;20403;-67
2022/02/15 06:02:48;;;;;;;6.03;1.92;;;9.00;95.20;;;;;;5076243;28;20302;-67
2022/02/15 06:05:31;;;;;;;13.10;1.85;;;8.90;95.00;;;;;;5073431;28;20085;-68
2022/02/15 06:08:00;;;;;;;5.90;1.95;;;8.90;95.00;;;;;;5076641;28;20072;-66
2022/02/15 06:10:28;;;;;;;2.28;1.08;;;8.90;95.10;;;;;;5076812;28;20033;-67
2022/02/15 06:12:54;;;;;;;7.43;1.70;;;8.90;95.10;;;;;;5073806;28;20107;-68
2022/02/15 06:15:28;;;;;;;4.78;2.17;;;8.90;95.10;;;;;;5077813;28;20031;-70
2022/02/15 06:18:20;;;;;;;5.10;1.30;;;8.90;95.20;;;;;;5058878;28;20098;-67
2022/02/15 06:20:50;;;;;;;12.45;2.15;;;8.90;95.20;;;;;;5073084;28;20024;-67
2022/02/15 06:23:23;;;;;;;9.13;1.73;;;8.80;95.20;;;;;;5075555;28;20074;-66
2022/02/15 06:25:58;;;;;;;1.83;1.33;;;8.90;95.20;;;;;;5083303;28;20029;-66
2022/02/15 06:28:27;;;;;;;6.10;2.05;;;8.90;95.20;;;;;;5072050;28;20107;-66
2022/02/15 06:31:14;;;;;;;1.55;1.08;;;8.90;95.20;;;;;;5076230;28;20040;-66
2022/02/15 06:33:39;;;;;;;9.57;2.17;;;8.90;95.20;;;;;;5073880;28;20391;-66
2022/02/15 06:36:06;;;;;;;10.18;2.50;;;8.90;95.20;;;;;;5073832;28;20021;-67
2022/02/15 06:38:35;;;;;;;6.40;1.90;;;8.90;95.20;;;;;;5074303;28;20051;-66
2022/02/15 06:41:11;;;;;;;2.75;1.92;;;8.90;95.20;;;;;;5067581;28;20036;-66
2022/02/15 06:43:52;;;;;;;9.23;2.65;;;8.90;95.30;;;;;;5070954;28;20089;-66
2022/02/15 06:46:21;;;;;;;13.23;2.35;;;8.80;95.30;;;;;;5069828;28;20052;-67
2022/02/15 06:48:47;;;;;;;9.10;2.35;;;8.80;95.30;;;;;;5073770;28;20040;-67
2022/02/15 06:51:12;;;;;;;1.42;0.98;;;8.90;95.40;;;;;;5075169;28;20032;-66
2022/02/15 06:53:57;;;;;;;3.95;0.98;;;8.80;95.40;;;;;;5076322;28;20036;-68
2022/02/15 06:56:28;;;;;;;9.85;1.80;;;8.80;95.40;;;;;;5070369;28;20039;-68
2022/02/15 06:58:58;;;;;;;4.88;2.10;;;8.80;95.40;;;;;;5059008;28;20039;-66
2022/02/15 07:01:31;;;;;;;3.85;1.80;;;8.80;95.40;;;;;;5074830;28;20653;-67
2022/02/15 07:03:57;;;;;;;4.38;1.85;;;8.80;95.30;;;;;;5074939;28;20043;-67
2022/02/15 07:06:23;;;;;;;3.70;1.08;;;8.80;95.40;;;;;;5072879;28;20020;-67
2022/02/15 07:08:48;;;;;;;8.30;2.20;;;8.80;95.40;;;;;;5090516;28;20126;-66
2022/02/15 07:11:16;;;;;;;7.30;1.80;;;8.80;95.40;;;;;;5075467;28;20364;-67
2022/02/15 07:13:44;;;;;;;3.67;1.67;;;8.80;95.40;;;;;;5077450;28;20121;-67
2022/02/15 07:16:11;;;;;;;1.60;1.30;;;8.80;95.40;;;;;;5070395;28;20028;-66
2022/02/15 07:18:37;;;;;;;6.05;2.45;;;8.80;95.40;;;;;;5092023;28;20467;-66
2022/02/15 07:21:11;;;;;;;15.32;1.98;;;8.70;95.40;;;;;;5094462;28;20035;-67
2022/02/15 07:23:56;;;;;;;1.63;1.20;;;8.70;95.40;;;;;;5094378;28;20079;-71
2022/02/15 07:26:40;;;;;;;1.52;1.08;;;8.70;95.40;;;;;;5092608;28;20035;-67
2022/02/15 07:29:27;;;;;;;3.58;1.52;;;8.70;95.30;;;;;;5072665;28;20452;-67
2022/02/15 07:32:11;;;;;;;;;;;8.80;95.40;;;;;;5094417;28;20070;-67
2022/02/15 07:34:43;;;;;;;3.80;1.38;;;8.80;95.30;;;;;;5075946;28;19912;-67
2022/02/15 07:37:09;;;;;;;4.05;2.05;;;8.80;95.30;;;;;;5093345;28;20032;-73
2022/02/15 07:39:34;;;;;;;5.70;1.73;;;8.80;95.30;;;;;;5090731;28;20467;-67
2022/02/15 07:42:00;;;;;;;3.20;1.75;;;8.80;95.30;;;;;;5089427;28;20020;-66
2022/02/15 07:44:34;;;;;;;5.75;2.58;;;8.80;95.30;;;;;;5075341;28;20369;-67
2022/02/15 07:47:00;;;;;;;3.78;2.08;;;8.80;95.20;;;;;;5094130;28;20020;-67
2022/02/15 07:49:26;;;;;;;4.00;2.00;;;8.80;95.20;;;;;;5094061;28;20484;-67
2022/02/15 07:51:55;;;;;;;4.50;2.58;;;8.80;95.20;;;;;;5094383;28;20028;-68
2022/02/15 07:54:20;;;;;;;6.95;3.20;;;8.80;95.20;;;;;;5082405;28;20086;-73
2022/02/15 07:56:47;;;;;;;2.28;1.13;;;8.80;95.10;;;;;;5091791;28;20032;-69
2022/02/15 07:59:16;;;;;;;5.28;2.10;;;8.80;95.10;;;;;;5073544;28;20230;-67
2022/02/15 08:01:41;;;;;;;9.27;2.42;;;8.90;95.10;;;;;;5067535;28;20360;-67
2022/02/15 08:04:08;;;;;;;13.80;3.00;;;8.90;95.20;;;;;;5064578;28;20126;-67
2022/02/15 08:06:36;;;;;;;10.07;2.83;;;8.90;95.20;;;;;;5057053;28;20035;-67
2022/02/15 08:09:03;;;;;;;8.07;2.67;;;8.90;95.20;;;;;;5073883;28;20035;-67
2022/02/15 08:11:30;;;;;;;10.40;2.50;;;8.90;95.20;;;;;;5092496;28;20036;-67
2022/02/15 08:13:59;;;;;;;7.07;3.40;;;8.90;95.20;;;;;;5091714;28;20056;-67
2022/02/15 08:16:25;;;;;;;7.50;3.38;;;8.90;95.20;;;;;;5092177;28;20059;-67
2022/02/15 08:18:52;;;;;;;3.58;1.52;;;8.90;95.30;;;;;;5092799;28;20156;-67
2022/02/15 08:21:17;;;;;;;5.68;3.25;;;8.90;95.30;;;;;;5092676;28;20031;-68
2022/02/15 08:23:43;;;;;;;4.72;2.38;;;8.90;95.30;;;;;;5091259;28;20031;-67
2022/02/15 08:26:09;;;;;;;9.35;3.05;;;8.90;95.30;;;;;;5091900;28;20039;-67
2022/02/15 08:28:40;;;;;;;4.80;2.35;;;8.90;95.40;;;;;;5091166;28;20126;-67
2022/02/15 08:31:06;;;;;;;6.57;2.92;;;8.90;95.40;;;;;;5092603;28;20059;-67
2022/02/15 08:33:32;;;;;;;15.85;4.30;;;8.90;95.40;;;;;;5092754;28;20036;-67
2022/02/15 08:35:58;;;;;;;9.98;3.58;;;8.90;95.40;;;;;;5092607;28;20036;-67
2022/02/15 08:38:24;;;;;;;11.43;4.28;;;8.90;95.40;;;;;;5092453;28;20117;-67
2022/02/15 08:40:49;;;;;;;5.88;2.67;;;9.00;95.50;;;;;;5092408;28;20024;-67
2022/02/15 08:43:16;;;;;;;2.97;0.98;;;8.90;95.50;;;;;;5078798;28;20089;-67
2022/02/15 08:45:45;;;;;;;5.75;2.72;;;8.90;95.50;;;;;;5092116;28;20035;-67
2022/02/15 08:48:13;;;;;;;4.63;2.50;;;9.00;95.60;;;;;;5090054;28;20387;-68
2022/02/15 08:50:39;;;;;;;9.40;3.67;;;9.00;95.50;;;;;;5072100;28;20035;-67
2022/02/15 08:53:05;;;;;;;9.60;3.97;;;9.00;95.50;;;;;;5073522;28;20029;-68
2022/02/15 08:55:31;;;;;;;6.15;2.15;;;9.00;95.50;;;;;;5088136;28;20035;-72
2022/02/15 08:57:57;;;;;;;13.57;3.10;;;9.00;95.60;;;;;;5090237;28;20036;-67
2022/02/15 09:00:22;;;;;;;8.27;3.67;;;9.10;95.60;;;;;;5076799;28;20048;-67
2022/02/15 09:02:48;;;;;;;6.85;2.83;;;9.10;95.60;;;;;;5095569;28;20101;-67
2022/02/15 09:05:13;;;;;;;15.75;3.30;;;9.10;95.60;;;;;;5078474;28;20024;-67
2022/02/15 09:07:39;;;;;;;19.13;5.25;;;9.00;95.70;;;;;;5090317;28;20077;-67
2022/02/15 09:10:05;;;;;;;10.10;3.30;;;9.00;95.70;;;;;;5076959;28;20062;-67
2022/02/15 09:12:31;;;;;;;5.53;2.95;;;9.10;96.10;;;;;;5091562;28;20035;-67
2022/02/15 09:14:57;;;;;;;6.25;3.13;;;9.00;95.80;;;;;;5075744;28;20023;-67
2022/02/15 09:17:22;;;;;;;8.25;2.47;;;9.10;95.90;;;;;;5092152;28;20486;-67
2022/02/15 09:19:48;;;;;;;10.05;3.70;;;9.10;95.90;;;;;;5091298;28;20120;-67
2022/02/15 09:22:15;;;;;;;6.50;2.83;;;9.10;95.90;;;;;;5080438;28;20036;-67
2022/02/15 09:24:41;;;;;;;9.70;3.58;;;9.10;95.90;;;;;;5089120;28;20032;-67
2022/02/15 09:27:06;;;;;;;12.30;3.40;;;9.10;95.90;;;;;;5080833;28;20499;-67
2022/02/15 09:29:33;;;;;;;12.13;3.35;;;9.10;95.90;;;;;;5074410;28;20043;-67
2022/02/15 09:31:58;;;;;;;9.52;3.67;;;9.10;95.80;;;;;;5091890;28;20036;-67
2022/02/15 09:34:24;;;;;;;6.60;2.55;;;9.20;95.80;;;;;;5091179;28;20028;-67
2022/02/15 09:36:51;;;;;;;13.18;3.60;;;9.20;95.90;;;;;;5091523;28;20065;-67
2022/02/15 09:39:16;;;;;;;7.72;3.63;;;9.20;95.90;;;;;;5090340;28;20391;-76
2022/02/15 09:41:43;;;;;;;10.90;3.83;;;9.20;95.90;;;;;;5092140;28;20030;-66
2022/02/15 09:44:09;;;;;;;14.40;3.95;;;9.20;95.90;;;;;;5089232;28;20548;-67
2022/02/15 09:46:35;;;;;;;8.43;3.92;;;9.20;95.80;;;;;;5092221;28;20024;-67
2022/02/15 09:49:01;;;;;;;10.70;2.55;;;9.30;95.90;;;;;;5084245;28;20031;-67
2022/02/15 09:51:28;;;;;;;3.85;1.95;;;9.30;95.90;;;;;;5084427;28;20131;-67
2022/02/15 09:53:53;;;;;;;13.75;3.97;;;9.30;95.90;;;;;;5084328;28;20107;-67
2022/02/15 09:56:20;;;;;;;11.75;2.90;;;9.30;95.90;;;;;;5088520;28;20107;-67
2022/02/15 09:58:46;;;;;;;5.05;2.20;;;9.30;95.90;;;;;;5075689;28;20094;-68
2022/02/15 10:01:13;;;;;;;6.10;2.70;;;9.30;95.90;;;;;;5078400;28;20044;-67
2022/02/15 10:03:49;;;;;;;11.25;3.97;;;9.40;95.90;;;;;;5084721;28;20046;-67
2022/02/15 10:06:15;;;;;;;11.13;2.97;;;9.30;95.90;;;;;;5087451;28;20434;-67
2022/02/15 10:08:44;;;;;;;6.53;3.28;;;9.30;95.80;;;;;;5090865;28;20032;-67
2022/02/15 10:11:13;;;;;;;16.83;3.55;;;9.40;95.90;;;;;;5090238;28;20036;-67
2022/02/15 10:13:46;;;;;;;7.65;4.18;;;9.30;95.90;;;;;;5090145;28;20532;-67
2022/02/15 10:16:13;;;;;;;11.03;3.93;;;9.40;96.00;;;;;;5091065;28;20063;-67
2022/02/15 10:18:41;;;;;;;7.50;3.15;;;9.40;95.90;;;;;;5090899;28;20071;-67
2022/02/15 10:21:15;;;;;;;11.98;3.45;;;9.40;95.90;;;;;;5090118;28;20032;-67
2022/02/15 10:23:40;;;;;;;25.88;4.00;;;9.30;95.90;;;;;;5063606;28;20041;-67
2022/02/15 10:26:08;;;;;;;7.78;2.97;;;9.40;95.90;;;;;;5083144;28;20452;-67
2022/02/15 10:28:33;;;;;;;14.38;3.03;;;9.40;95.90;;;;;;5080671;28;20490;-67
2022/02/15 10:31:01;;;;;;;15.18;3.85;;;9.40;95.90;;;;;;5090868;28;20027;-67
2022/02/15 10:33:38;;;;;;;11.25;3.25;;;9.40;95.90;;;;;;5079098;28;20041;-67
2022/02/15 10:36:06;;;;;;;9.02;3.80;;;9.30;95.90;;;;;;5084258;28;20025;-67
2022/02/15 10:38:39;;;;;;;10.45;3.08;;;9.40;95.80;;;;;;5069763;28;20047;-67
2022/02/15 10:41:08;;;;;;;9.77;3.00;;;9.30;95.70;;;;;;5078486;28;20028;-67
2022/02/15 10:43:57;;;;;;;11.15;2.97;;;9.30;95.80;;;;;;5090825;28;20048;-67
2022/02/15 10:46:24;;;;;;;9.43;1.92;;;9.30;95.80;;;;;;5086634;28;20051;-67
2022/02/15 10:48:52;;;;;;;8.30;3.05;;;9.30;95.70;;;;;;5090316;28;21657;-67
2022/02/15 10:51:22;;;;;;;14.18;2.78;;;9.30;95.70;;;;;;5090919;28;20089;-66
2022/02/15 10:53:48;;;;;;;10.32;2.55;;;9.30;95.60;;;;;;5092875;28;20115;-67
2022/02/15 10:56:15;;;;;;;7.00;2.67;;;9.30;95.60;;;;;;5089076;28;20111;-65
2022/02/15 10:58:40;;;;;;;6.57;2.45;;;9.40;95.50;;;;;;5093677;28;20028;-67
2022/02/15 11:01:09;;;;;;;9.98;2.67;;;9.30;95.40;;;;;;5091805;28;20043;-67
2022/02/15 11:03:37;;;;;;;10.00;2.88;;;9.30;95.40;;;;;;5090718;28;20036;-67
2022/02/15 11:06:04;;;;;;;10.90;3.00;;;9.30;95.40;;;;;;5094960;28;20035;-67
2022/02/15 11:08:31;;;;;;;5.63;2.72;;;9.30;95.30;;;;;;5094230;28;20028;-67
2022/02/15 11:11:13;;;;;;;4.35;2.42;;;9.30;95.30;;;;;;5094954;28;20120;-67
2022/02/15 11:13:40;;;;;;;19.52;2.80;;;9.30;95.40;;;;;;5092982;28;20035;-67
2022/02/15 11:16:18;;;;;;;6.38;2.85;;;9.30;95.30;;;;;;5087235;28;20032;-67
2022/02/15 11:18:45;;;;;;;11.35;3.08;;;9.30;95.30;;;;;;5074886;28;20408;-66
2022/02/15 11:21:25;;;;;;;8.30;2.72;;;9.30;95.20;;;;;;5093532;28;20020;-66
2022/02/15 11:24:02;;;;;;;4.57;2.30;;;9.30;95.20;;;;;;5095088;28;20031;-66
2022/02/15 11:26:39;;;;;;;10.95;3.17;;;9.40;95.20;;;;;;5095364;28;20036;-67
2022/02/15 11:29:06;;;;;;;3.58;2.25;;;9.40;95.00;;;;;;5094559;28;20406;-66
2022/02/15 11:31:40;;;;;;;3.97;2.25;;;9.40;95.00;;;;;;5094858;28;20036;-67
2022/02/15 11:34:07;;;;;;;6.30;2.47;;;9.40;95.00;;;;;;5095347;28;20463;-66
2022/02/15 11:36:44;;;;;;;10.77;2.70;;;9.40;94.90;;;;;;5093859;28;20488;-67
2022/02/15 11:39:20;;;;;;;3.00;1.67;;;9.40;94.80;;;;;;5095033;28;20420;-67
2022/02/15 11:41:54;;;;;;;7.57;3.20;;;9.50;94.80;;;;;;5094498;28;20081;-69
2022/02/15 11:44:30;;;;;;;8.77;1.98;;;9.50;94.70;;;;;;5094695;28;20501;-68
2022/02/15 11:47:13;;;;;;;6.05;1.83;;;9.50;94.60;;;;;;5095028;28;20099;-68
2022/02/15 11:50:14;;;;;;;7.60;3.00;;;9.60;94.70;;;;;;5094269;28;20388;-67
2022/02/15 11:52:43;;;;;;;7.53;2.45;;;9.60;94.60;;;;;;5061676;28;20040;-67
2022/02/15 11:55:15;;;;;;;6.88;2.42;;;9.60;94.50;;;;;;5091797;28;20020;-67
2022/02/15 11:57:46;;;;;;;4.40;1.97;;;9.70;94.50;;;;;;5090760;28;20040;-67
2022/02/15 12:00:12;;;;;;;7.57;2.53;;;9.60;94.20;;;;;;5090620;28;20147;-68
2022/02/15 12:02:49;;;;;;;8.63;2.30;;;9.70;94.20;;;;;;5096962;28;20043;-67
2022/02/15 12:05:16;;;;;;;7.43;2.50;;;9.60;94.10;;;;;;5094466;28;20059;-73
2022/02/15 12:07:43;;;;;;;7.60;3.03;;;9.60;94.10;;;;;;5094546;28;20032;-71
2022/02/15 12:10:09;;;;;;;8.80;2.60;;;9.60;94.10;;;;;;5093499;28;20402;-68
2022/02/15 12:12:39;;;;;;;9.02;2.58;;;9.60;93.80;;;;;;5094662;28;20019;-71
2022/02/15 12:15:08;;;;;;;9.25;2.28;;;9.50;93.80;;;;;;5093411;28;20411;-68
2022/02/15 12:17:42;;;;;;;10.15;2.30;;;9.50;93.70;;;;;;5093812;28;20032;-68
2022/02/15 12:20:10;;;;;;;6.32;2.28;;;9.50;93.80;;;;;;5081354;28;20047;-68
2022/02/15 12:22:42;;;;;;;10.00;1.98;;;9.60;94.00;;;;;;5093961;28;20044;-68
2022/02/15 12:25:29;;;;;;;5.47;1.52;;;9.60;93.90;;;;;;5075523;28;20486;-68
2022/02/15 12:27:57;;;;;;;12.95;1.95;;;9.60;93.70;;;;;;5094048;28;20031;-68
2022/02/15 12:30:23;;;;;;;8.38;2.13;;;9.60;93.50;;;;;;5094033;28;20020;-68
2022/02/15 12:32:49;;;;;;;4.95;1.58;;;9.60;93.50;;;;;;5092536;28;20024;-68
2022/02/15 12:35:25;;;;;;;5.18;1.92;;;9.70;93.30;;;;;;5090408;28;20559;-68
2022/02/15 12:37:51;;;;;;;10.65;1.67;;;9.70;93.40;;;;;;5089955;28;20419;-68
2022/02/15 12:40:20;;;;;;;5.25;1.75;;;9.70;93.40;;;;;;5083836;28;20106;-69
2022/02/15 12:42:45;;;;;;;4.85;1.48;;;9.70;93.40;;;;;;5093661;28;20085;-68
2022/02/15 12:45:11;;;;;;;2.97;1.20;;;9.70;93.00;;;;;;5092822;28;20036;-68
2022/02/15 12:47:40;;;;;;;5.40;1.63;;;9.70;93.00;;;;;;5092552;28;20024;-68
2022/02/15 12:50:09;;;;;;;2.85;1.50;;;9.80;93.10;;;;;;5093891;28;20089;-66
2022/02/15 12:52:37;;;;;;;6.97;2.17;;;9.80;92.90;;;;;;5086181;28;20460;-72
2022/02/15 12:55:17;;;;;;;3.13;1.42;;;9.80;92.70;;;;;;5082359;28;20085;-67
2022/02/15 12:57:45;;;;;;;5.38;1.90;;;9.80;92.90;;;;;;5080215;28;20498;-67
2022/02/15 13:00:12;;;;;;;8.63;1.48;;;9.90;93.00;;;;;;5092507;28;20105;-66
2022/02/15 13:02:39;;;;;;;5.07;1.10;;;9.90;92.50;;;;;;5097665;28;20064;-67
2022/02/15 13:05:05;;;;;;;4.25;1.48;;;9.90;92.20;;;;;;5093667;28;20074;-67
2022/02/15 13:07:31;;;;;;;6.18;1.77;;;9.90;91.80;;;;;;5091392;28;20024;-67
2022/02/15 13:10:02;;;;;;;4.47;1.55;;;9.90;91.60;;;;;;5079137;28;20032;-67
2022/02/15 13:12:33;;;;;;;5.57;1.40;;;9.90;91.70;;;;;;5080204;28;20371;-67
2022/02/15 13:15:00;;;;;;;2.78;0.98;;;10.00;91.80;;;;;;5091806;28;20551;-69